MDT,Max TemperatureF,Mean TemperatureF,Min TemperatureF,Max Dew PointF,MeanDew PointF,Min DewpointF,Max Humidity, Mean Humidity, Min Humidity, Max Sea Level PressureIn, Mean Sea Level PressureIn, Min Sea Level PressureIn, Max VisibilityMiles, Mean VisibilityMiles, Min VisibilityMiles, Max Wind SpeedMPH, Mean Wind SpeedMPH, Max Gust SpeedMPH,PrecipitationIn, CloudCover, Events, WindDirDegrees
2013-8-1,89,78,68,61,51,41,73,42,15,30.17,30.00,29.96,10,10,8,17,8,22,0.01,5,Rain,98
2013-8-2,90,76,63,56,52,45,73,46,15,30.23,29.99,29.88,10,10,10,22,8,30,0.00,2,,137
2013-8-3,91,76,62,58,51,41,86,46,12,30.08,30.01,29.91,10,10,10,17,9,23,0.03,2,Rain,131
2013-8-4,95,78,60,54,48,42,62,39,10,30.21,30.01,29.90,10,10,10,18,7,25,0.00,2,Thunderstorm,102
2013-8-5,93,77,61,56,50,42,81,44,14,30.10,30.01,29.91,10,10,10,22,8,29,0.00,1,Rain-Thunderstorm,167
2013-8-6,90,76,62,60,52,43,90,52,15,30.03,29.97,29.86,10,9,5,21,10,29,0.28,5,Rain,137
2013-8-7,75,68,60,59,57,53,90,71,47,30.04,29.99,29.95,10,10,10,16,4,24,0.00,5,Rain,59
2013-8-8,84,70,55,57,51,41,93,57,16,30.11,30.00,29.94,10,10,10,20,4,28,0.00,3,,74
2013-8-9,89,71,53,48,42,34,77,38,8,30.09,30.02,29.95,10,10,10,14,7,20,0.00,0,,102
2013-8-10,87,72,57,56,49,43,78,56,20,30.23,30.13,30.00,10,10,3,34,11,45,0.12,3,Rain-Thunderstorm,89
2013-8-11,86,69,52,51,44,29,83,46,8,30.22,30.12,29.99,10,10,10,14,6,,0.00,0,,136
2013-8-12,88,73,62,49,44,38,62,37,18,30.09,30.02,29.95,10,10,10,12,3,16,0.00,1,,224
2013-8-13,91,75,59,49,39,25,62,33,7,30.13,30.03,29.95,10,10,10,14,6,23,0.00,0,,37
2013-8-14,93,74,57,44,33,16,48,23,4,30.07,29.99,29.91,10,10,10,15,7,22,0.00,0,,46
2013-8-15,95,76,57,43,31,18,45,23,4,30.08,29.99,29.93,10,10,10,10,6,18,0.00,0,,59
2013-8-16,96,78,60,41,35,26,39,22,4,30.09,30.00,29.94,10,10,10,14,5,,0.00,0,,153
2013-8-17,95,78,61,47,41,37,44,29,9,30.17,30.01,29.95,10,10,10,22,8,36,0.00,0,Thunderstorm,360
2013-8-18,91,76,63,49,44,39,60,32,10,30.11,30.01,29.91,10,10,10,12,4,,0.00,2,Rain,136
2013-8-19,95,80,64,49,46,39,52,30,12,30.14,29.97,29.85,10,10,10,21,8,29,0.00,1,,87
2013-8-20,91,78,64,52,48,43,61,36,12,30.10,29.95,29.86,10,10,10,16,7,24,0.00,0,,111
2013-8-21,95,80,64,61,50,37,84,47,7,30.24,30.02,29.85,10,10,2,22,8,31,0.24,3,Rain-Thunderstorm,56
2013-8-22,87,72,57,59,54,47,93,57,20,30.14,30.03,29.93,10,10,10,10,2,,0.00,0,,274
2013-8-23,91,76,61,53,44,25,75,36,4,29.99,29.93,29.81,10,10,10,15,7,21,0.00,2,Rain,83
2013-8-24,86,76,66,56,52,45,70,49,20,30.07,30.00,29.92,10,10,10,12,6,,0.00,4,Rain,113
2013-8-25,79,70,62,63,60,56,93,78,40,30.25,30.13,30.04,10,9,2,16,9,28,0.31,7,Rain-Thunderstorm,92
2013-8-26,87,74,61,62,58,48,93,63,17,30.21,30.11,29.98,10,10,10,16,5,22,0.08,3,Rain,99
2013-8-27,88,74,60,61,56,48,93,58,18,30.14,30.02,29.93,10,10,10,18,3,24,0.00,1,,240
2013-8-28,90,74,59,59,52,38,90,48,12,30.06,29.99,29.92,10,10,10,9,5,,0.00,1,,239
2013-8-29,91,78,66,55,51,48,59,41,16,30.24,30.04,29.97,10,10,10,14,6,,0.00,2,Rain-Thunderstorm,67
2013-8-30,91,78,66,58,54,49,63,45,15,30.14,30.02,29.90,10,10,4,18,5,46,0.55,1,Rain-Thunderstorm,69
2013-8-31,90,76,62,58,54,49,78,48,18,30.04,29.95,29.85,10,10,10,9,3,16,0.00,0,,317